Groom Creek, Arizona
Current Conditions -  °F | °C
As of 3:53 AM on Sunday 21 Dec 2014 (Local Time) from KPRC Reporting Station
Clear Clear  
Wind Chill: -1°   Ceiling: Unl
Heat Index: -1°   Visibility: 10mi
Dew Point: -5°   Wind: 3mph
Humidity: 75%   Direction: 220°SW
Pressure: 30.16"   Gusts: NA
Location:  34.5368°N, 112.512°W
Report Text: KPRC 211053Z AUTO 22003KT 10SM CLR M01/M05 A3016 RMK AO2 SLP189 T10111050
Loading
Personal Weather Stations






























Interactive Weather Map New forecast layout! Learn more

10-Day Weather Forecast

Advertisements
Track Severe Weather on mobile